createdAt,value
2022-08-16T00:02:23.260Z,16.80
2022-08-16T00:07:25.044Z,16.76
2022-08-16T00:12:31.212Z,16.88
2022-08-16T00:17:55.873Z,17.13
2022-08-16T00:22:54.624Z,17.29
2022-08-16T00:27:55.977Z,17.40
2022-08-16T00:32:58.714Z,17.37
2022-08-16T00:38:02.892Z,17.61
2022-08-16T00:43:26.274Z,18.15
2022-08-16T00:48:45.560Z,18.58
2022-08-16T00:53:47.538Z,18.67
2022-08-16T00:58:49.095Z,18.74
2022-08-16T01:03:52.990Z,18.81
2022-08-16T01:08:56.730Z,18.80
2022-08-16T01:14:09.228Z,18.80
2022-08-16T01:19:22.718Z,18.81
2022-08-16T01:24:52.369Z,18.73
2022-08-16T01:29:59.593Z,18.72
2022-08-16T01:35:03.082Z,18.66
2022-08-16T01:40:07.275Z,18.61
2022-08-16T01:45:09.055Z,18.36
2022-08-16T01:50:42.407Z,18.29
2022-08-16T01:55:35.796Z,18.39
2022-08-16T02:00:37.265Z,18.35
2022-08-16T02:05:40.778Z,18.35
2022-08-16T02:10:48.364Z,18.38
2022-08-16T02:15:50.603Z,18.40
2022-08-16T02:20:54.151Z,18.28
2022-08-16T02:25:55.519Z,18.15
2022-08-16T02:30:59.527Z,18.10
2022-08-16T02:36:01.599Z,18.17
2022-08-16T02:41:07.369Z,18.24
2022-08-16T02:46:11.284Z,18.20
2022-08-16T02:51:12.640Z,18.03
2022-08-16T02:56:16.171Z,18.00
2022-08-16T03:01:25.171Z,17.89
2022-08-16T03:06:42.654Z,17.94
2022-08-16T03:11:44.855Z,17.67
2022-08-16T03:17:00.249Z,17.53
2022-08-16T03:22:02.061Z,17.50
2022-08-16T03:27:03.862Z,17.58
2022-08-16T03:32:07.943Z,17.56
2022-08-16T03:37:09.342Z,17.63
2022-08-16T03:42:10.744Z,17.62
2022-08-16T03:47:12.298Z,17.55
2022-08-16T03:52:13.802Z,17.45
2022-08-16T03:57:17.911Z,17.27
2022-08-16T04:02:22.070Z,17.18
2022-08-16T04:07:24.742Z,17.09
2022-08-16T04:12:54.565Z,16.90
2022-08-16T04:17:47.797Z,16.67
2022-08-16T04:22:50.058Z,16.56
2022-08-16T04:27:54.246Z,16.43
2022-08-16T04:32:57.632Z,16.29
2022-08-16T04:38:00.981Z,16.23
2022-08-16T04:43:13.265Z,16.19
2022-08-16T04:48:21.871Z,16.16
2022-08-16T04:53:29.966Z,16.17
2022-08-16T04:58:43.915Z,16.16
2022-08-16T05:04:00.536Z,16.19
2022-08-16T05:09:03.312Z,16.19
2022-08-16T05:14:06.849Z,16.34
2022-08-16T05:19:11.768Z,16.41
2022-08-16T05:24:24.592Z,16.60
2022-08-16T05:30:00.729Z,16.84
2022-08-16T05:34:47.653Z,17.00
2022-08-16T05:39:51.958Z,17.21
2022-08-16T05:44:57.681Z,17.56
2022-08-16T05:49:59.610Z,18.11
2022-08-16T05:55:01.900Z,20.53
2022-08-16T06:00:09.131Z,22.43
2022-08-16T06:05:11.313Z,23.35
2022-08-16T06:10:32.389Z,24.38
2022-08-16T06:15:35.213Z,24.48
2022-08-16T06:20:36.857Z,24.59
2022-08-16T06:25:53.707Z,23.96
2022-08-16T06:30:55.077Z,24.52
2022-08-16T06:35:59.525Z,25.14
2022-08-16T06:41:13.614Z,26.00
2022-08-16T06:46:41.953Z,26.78
2022-08-16T06:51:52.690Z,26.54
2022-08-16T06:56:55.333Z,27.23
2022-08-16T07:01:58.271Z,27.73
2022-08-16T07:07:00.601Z,26.55
2022-08-16T07:12:03.277Z,26.85
2022-08-16T07:17:08.445Z,27.32
2022-08-16T07:22:39.261Z,26.86
2022-08-16T07:27:37.312Z,27.10
2022-08-16T07:32:39.021Z,27.22
2022-08-16T07:37:40.913Z,27.93
2022-08-16T07:42:42.251Z,29.58
2022-08-16T07:47:44.085Z,29.46
2022-08-16T07:52:45.505Z,29.38
2022-08-16T07:58:00.940Z,29.22
2022-08-16T08:03:04.771Z,28.51
2022-08-16T08:08:11.886Z,29.11
2022-08-16T08:13:42.322Z,29.64
2022-08-16T08:18:50.125Z,29.63
2022-08-16T08:23:52.734Z,30.60
2022-08-16T08:28:54.156Z,30.29
2022-08-16T08:34:06.464Z,29.34
2022-08-16T08:39:12.535Z,29.80
2022-08-16T08:44:28.690Z,30.88
2022-08-16T08:49:50.592Z,30.10
2022-08-16T08:54:53.397Z,30.57
2022-08-16T08:59:55.542Z,31.45
2022-08-16T09:04:58.206Z,32.36
2022-08-16T09:10:00.888Z,31.39
2022-08-16T09:15:09.571Z,33.24
2022-08-16T09:20:16.818Z,32.81
2022-08-16T09:25:25.667Z,33.12
2022-08-16T09:30:33.395Z,33.18
2022-08-16T09:35:38.636Z,34.05
2022-08-16T09:40:43.122Z,33.87
2022-08-16T09:45:46.590Z,32.05
2022-08-16T09:50:50.185Z,34.23
2022-08-16T09:55:52.675Z,33.67
2022-08-16T10:00:58.338Z,33.23
2022-08-16T10:06:02.410Z,33.57
2022-08-16T10:11:24.821Z,33.53
2022-08-16T10:16:26.300Z,34.77
2022-08-16T10:21:29.636Z,34.06
2022-08-16T10:27:16.725Z,33.54
2022-08-16T10:31:55.264Z,34.50
2022-08-16T10:36:58.095Z,35.31
2022-08-16T10:41:59.440Z,35.64
2022-08-16T10:47:02.319Z,34.41
2022-08-16T10:52:18.123Z,35.35
2022-08-16T10:57:20.635Z,34.55
2022-08-16T11:02:58.100Z,36.29
2022-08-16T11:07:52.265Z,36.22
2022-08-16T11:12:55.367Z,36.07
2022-08-16T11:23:18.098Z,35.13
2022-08-16T11:29:12.616Z,34.86
2022-08-16T11:33:58.885Z,34.82
2022-08-16T11:39:00.906Z,34.32
2022-08-16T11:44:03.230Z,34.77
2022-08-16T11:49:08.681Z,34.78
2022-08-16T11:54:20.582Z,35.92
2022-08-16T11:59:24.403Z,34.85
2022-08-16T12:04:31.252Z,33.47
2022-08-16T12:09:32.699Z,33.75
2022-08-16T12:14:37.691Z,33.24
2022-08-16T12:19:39.064Z,32.96
2022-08-16T12:24:40.459Z,32.01
2022-08-16T12:29:44.634Z,32.17
2022-08-16T12:34:48.064Z,32.95
2022-08-16T12:39:56.216Z,32.01
2022-08-16T12:44:57.729Z,32.51
2022-08-16T12:49:59.958Z,31.81
2022-08-16T12:55:01.960Z,31.36
2022-08-16T13:00:11.027Z,32.07
2022-08-16T13:05:13.661Z,31.82
2022-08-16T13:10:20.709Z,31.63
2022-08-16T13:15:25.091Z,31.31
2022-08-16T13:20:29.027Z,31.28
2022-08-16T13:25:31.485Z,31.07
2022-08-16T13:30:37.656Z,30.69
2022-08-16T13:35:44.276Z,30.04
2022-08-16T13:40:45.770Z,31.01
2022-08-16T13:45:50.568Z,31.65
2022-08-16T13:50:53.565Z,31.44
2022-08-16T13:55:57.854Z,30.80
2022-08-16T14:01:01.144Z,30.81
2022-08-16T14:06:03.258Z,31.75
2022-08-16T14:11:05.591Z,31.08
2022-08-16T14:16:24.456Z,30.31
2022-08-16T14:21:35.852Z,30.25
2022-08-16T14:26:37.300Z,30.38
2022-08-16T14:31:39.729Z,30.01
2022-08-16T14:36:42.768Z,30.13
2022-08-16T14:41:44.850Z,30.47
2022-08-16T14:46:46.194Z,30.28
2022-08-16T14:51:48.727Z,30.09
2022-08-16T14:56:55.062Z,29.92
2022-08-16T15:02:00.261Z,29.89
2022-08-16T15:07:02.191Z,29.80
2022-08-16T15:12:07.704Z,29.99
2022-08-16T15:17:33.667Z,30.31
2022-08-16T15:22:39.337Z,30.40
2022-08-16T15:27:44.252Z,30.43
2022-08-16T15:32:45.889Z,30.41
2022-08-16T15:37:48.316Z,30.41
2022-08-16T15:42:57.179Z,30.60
2022-08-16T15:47:58.935Z,30.27
2022-08-16T15:53:12.327Z,30.27
2022-08-16T15:58:34.531Z,29.94
2022-08-16T16:03:36.177Z,29.89
2022-08-16T16:08:38.972Z,29.84
2022-08-16T16:13:43.204Z,29.91
2022-08-16T16:18:48.981Z,29.64
2022-08-16T16:23:54.915Z,29.52
2022-08-16T16:29:07.673Z,29.57
2022-08-16T16:34:12.171Z,29.68
2022-08-16T16:39:13.515Z,29.61
2022-08-16T16:44:18.222Z,29.42
2022-08-16T16:49:33.949Z,29.34
2022-08-16T16:54:35.608Z,29.13
2022-08-16T16:59:37.043Z,28.73
2022-08-16T17:04:38.402Z,28.45
2022-08-16T17:09:41.094Z,28.21
2022-08-16T17:14:42.928Z,28.01
2022-08-16T17:19:44.389Z,27.90
2022-08-16T17:24:50.674Z,27.75
2022-08-16T17:29:54.118Z,27.81
2022-08-16T17:34:56.026Z,27.84
2022-08-16T17:40:06.251Z,27.74
2022-08-16T17:45:21.008Z,27.57
2022-08-16T17:50:22.473Z,27.33
2022-08-16T17:55:27.494Z,27.00
2022-08-16T18:00:29.371Z,26.81
2022-08-16T18:05:30.941Z,26.70
2022-08-16T18:10:33.476Z,26.50
2022-08-16T18:15:38.500Z,26.16
2022-08-16T18:20:58.339Z,26.09
2022-08-16T18:26:01.028Z,25.86
2022-08-16T18:31:05.479Z,25.56
2022-08-16T18:36:20.576Z,25.37
2022-08-16T18:41:24.081Z,25.08
2022-08-16T18:46:25.437Z,24.83
2022-08-16T18:51:27.033Z,24.26
2022-08-16T18:56:55.824Z,23.95
2022-08-16T19:01:50.370Z,23.79
2022-08-16T19:06:51.765Z,23.69
2022-08-16T19:11:53.120Z,23.50
2022-08-16T19:16:54.474Z,23.15
2022-08-16T19:21:56.763Z,22.94
2022-08-16T19:26:58.364Z,22.81
2022-08-16T19:31:59.950Z,22.51
2022-08-16T19:37:01.328Z,22.31
2022-08-16T19:42:10.462Z,22.28
2022-08-16T19:47:12.344Z,22.12
2022-08-16T19:52:13.716Z,22.09
2022-08-16T19:57:16.743Z,21.95
2022-08-16T20:02:32.661Z,21.69
2022-08-16T20:07:37.819Z,21.59
2022-08-16T20:12:39.991Z,21.44
2022-08-16T20:17:48.120Z,21.42
2022-08-16T20:23:02.577Z,21.30
2022-08-16T20:28:04.207Z,21.09
2022-08-16T20:33:09.169Z,21.04
2022-08-16T20:38:13.060Z,20.90
2022-08-16T20:43:15.370Z,20.72
2022-08-16T20:48:16.967Z,20.59
2022-08-16T20:53:18.314Z,20.48
2022-08-16T20:58:19.664Z,20.36
2022-08-16T21:03:21.026Z,20.28
2022-08-16T21:08:34.464Z,20.18
2022-08-16T21:13:43.970Z,20.08
2022-08-16T21:18:45.394Z,19.96
2022-08-16T21:23:46.768Z,19.86
2022-08-16T21:28:48.128Z,19.71
2022-08-16T21:33:54.962Z,19.59
2022-08-16T21:38:56.958Z,19.49
2022-08-16T21:43:58.306Z,19.40
2022-08-16T21:48:59.814Z,19.40
2022-08-16T21:54:02.012Z,19.33
2022-08-16T21:59:10.619Z,19.28
2022-08-16T22:04:37.341Z,19.16
2022-08-16T22:09:34.776Z,19.08
2022-08-16T22:14:36.186Z,18.98
2022-08-16T22:19:37.680Z,18.94
2022-08-16T22:24:39.070Z,18.86
2022-08-16T22:29:42.331Z,18.77
2022-08-16T22:34:43.937Z,18.67
2022-08-16T22:39:45.727Z,18.63
2022-08-16T22:44:47.160Z,18.55
2022-08-16T22:49:48.547Z,18.46
2022-08-16T22:54:49.894Z,18.43
2022-08-16T22:59:52.628Z,18.27
2022-08-16T23:04:54.564Z,18.18
2022-08-16T23:09:55.927Z,18.11
2022-08-16T23:15:00.603Z,18.11
2022-08-16T23:20:02.005Z,18.12
2022-08-16T23:25:03.419Z,18.08
2022-08-16T23:30:04.985Z,18.11
2022-08-16T23:35:06.406Z,18.17
2022-08-16T23:40:11.680Z,18.26
2022-08-16T23:45:13.299Z,18.21
2022-08-16T23:50:15.175Z,18.36
2022-08-16T23:55:17.309Z,18.22
